Time;durP1;ratioP1;P1;durP2;ratioP2;P2;SDS_P1;SDS_P2;PMS_P1;PMS_P2;Temp;Humidity;BMP_temperature;BMP_pressure;BME280_temperature;BME280_humidity;BME280_pressure;Samples;Min_cycle;Max_cycle;Signal;HPM_P1;HPM_P2
2021/12/04 00:00:11;;;;;;;0.20;0.20;;;10.30;99.90;;;;;;20783083;28;20191;-78
2021/12/04 00:10:20;;;;;;;0.20;0.00;;;10.40;99.90;;;;;;20768307;28;20308;-80
2021/12/04 00:20:37;;;;;;;0.20;0.10;;;10.10;99.90;;;;;;20840024;28;20252;-79
2021/12/04 00:30:44;;;;;;;4.67;1.50;;;9.10;99.90;;;;;;20819403;28;20230;-81
2021/12/04 00:51:10;;;;;;;0.20;0.10;;;9.30;99.90;;;;;;20846220;28;20213;-80
2021/12/04 01:01:17;;;;;;;0.37;0.37;;;9.20;99.90;;;;;;20783121;28;20535;-80
2021/12/04 01:11:21;;;;;;;0.20;0.10;;;8.70;99.90;;;;;;20767299;28;20225;-78
2021/12/04 01:21:26;;;;;;;0.20;0.10;;;8.50;99.90;;;;;;20824868;28;20217;-79
2021/12/04 01:31:30;;;;;;;0.20;0.10;;;8.50;99.90;;;;;;20858515;28;20622;-79
2021/12/04 01:41:35;;;;;;;0.20;0.10;;;8.30;99.90;;;;;;20824955;28;20186;-81
2021/12/04 01:51:39;;;;;;;0.20;0.07;;;8.30;99.90;;;;;;20840062;28;20253;-81
2021/12/04 02:01:44;;;;;;;0.40;0.40;;;8.10;99.90;;;;;;20842618;28;20384;-80
2021/12/04 02:11:51;;;;;;;0.20;0.10;;;7.80;99.90;;;;;;20837971;28;20214;-81
2021/12/04 02:21:57;;;;;;;0.20;0.03;;;8.60;99.90;;;;;;20859871;28;20218;-82
2021/12/04 02:32:01;;;;;;;0.20;0.10;;;8.80;99.90;;;;;;20838816;28;20234;-81
2021/12/04 02:42:08;;;;;;;0.20;0.10;;;8.60;99.90;;;;;;20833714;28;20248;-81
2021/12/04 02:52:13;;;;;;;0.20;0.00;;;8.70;99.90;;;;;;20813001;28;20222;-78
2021/12/04 03:02:20;;;;;;;0.20;0.00;;;8.30;99.90;;;;;;20831336;28;20209;-78
2021/12/04 03:12:25;;;;;;;0.20;0.00;;;7.90;99.90;;;;;;20831301;28;20479;-78
2021/12/04 03:22:30;;;;;;;0.20;0.00;;;7.80;99.90;;;;;;20826965;28;20595;-79
2021/12/04 03:42:55;;;;;;;0.20;0.07;;;8.30;99.90;;;;;;20826830;28;20276;-80
2021/12/04 03:52:59;;;;;;;0.20;0.00;;;8.60;99.90;;;;;;20829199;28;20313;-76
2021/12/04 04:03:04;;;;;;;0.20;0.10;;;8.90;99.90;;;;;;20825629;28;20198;-80
2021/12/04 04:13:11;;;;;;;0.20;0.10;;;8.50;99.90;;;;;;20824754;28;20679;-80
2021/12/04 04:23:16;;;;;;;0.20;0.10;;;8.90;99.90;;;;;;20825013;28;20577;-78
2021/12/04 04:33:20;;;;;;;0.20;0.10;;;8.90;99.90;;;;;;20829372;28;20325;-81
2021/12/04 05:14:30;;;;;;;0.20;0.10;;;8.90;99.90;;;;;;20901065;28;20225;-71
2021/12/04 05:24:35;;;;;;;0.20;0.00;;;9.00;99.90;;;;;;20899635;28;20242;-71
2021/12/04 05:34:40;;;;;;;0.20;0.07;;;9.20;99.90;;;;;;20896773;28;20264;-72
2021/12/04 05:44:45;;;;;;;0.20;0.10;;;9.30;99.90;;;;;;20900527;28;20276;-73
2021/12/04 05:55:10;;;;;;;0.20;0.10;;;8.90;99.90;;;;;;20896804;28;20221;-73
2021/12/04 06:05:41;;;;;;;0.20;0.10;;;8.10;99.90;;;;;;20897296;28;20236;-73
2021/12/04 06:16:25;;;;;;;0.20;0.00;;;9.50;99.90;;;;;;20897552;28;20229;-73
2021/12/04 06:26:30;;;;;;;0.20;0.10;;;8.80;99.90;;;;;;20896149;28;20255;-70
2021/12/04 06:36:37;;;;;;;0.20;0.00;;;9.20;99.90;;;;;;20909692;28;20700;-71
2021/12/04 06:46:42;;;;;;;0.93;0.93;;;8.80;99.90;;;;;;20908882;28;20742;-71
2021/12/04 06:56:47;;;;;;;0.20;0.10;;;9.80;99.90;;;;;;20908950;28;20233;-71
2021/12/04 07:06:52;;;;;;;0.20;0.10;;;10.20;99.90;;;;;;20909958;28;20221;-71
2021/12/04 07:16:56;;;;;;;0.20;0.10;;;9.90;99.90;;;;;;20840145;28;20221;-72
2021/12/04 07:27:01;;;;;;;0.20;0.00;;;9.80;99.90;;;;;;20826532;28;20202;-73
2021/12/04 07:37:05;;;;;;;0.20;0.10;;;10.00;99.90;;;;;;20826072;28;20218;-73
2021/12/04 07:47:11;;;;;;;0.20;0.10;;;10.30;99.90;;;;;;20825193;28;20549;-71
2021/12/04 07:57:15;;;;;;;0.20;0.00;;;10.50;99.90;;;;;;20899114;28;20229;-73
2021/12/04 08:07:20;;;;;;;0.20;0.10;;;10.90;99.90;;;;;;20903923;28;20245;-73
2021/12/04 08:17:25;;;;;;;0.20;0.10;;;11.40;99.90;;;;;;20831615;28;20312;-71
2021/12/04 08:27:30;;;;;;;0.20;0.10;;;11.50;99.90;;;;;;20821467;28;20476;-72
2021/12/04 08:37:33;;;;;;;0.20;0.00;;;11.80;99.90;;;;;;20865666;28;20260;-72
2021/12/04 08:47:39;;;;;;;0.20;0.10;;;12.10;99.90;;;;;;20900648;28;20268;-71
2021/12/04 08:57:44;;;;;;;0.20;0.10;;;12.30;99.90;;;;;;20900994;28;20225;-69
2021/12/04 09:07:49;;;;;;;0.20;0.10;;;12.30;99.90;;;;;;20842000;28;20226;-75
2021/12/04 09:17:53;;;;;;;0.20;0.07;;;12.40;99.90;;;;;;20893936;28;20245;-73
2021/12/04 09:28:07;;;;;;;0.20;0.10;;;12.60;99.90;;;;;;20899167;28;20204;-72
2021/12/04 10:20:10;;;;;;;0.20;0.00;;;14.10;99.90;;;;;;20874326;28;20305;-72
2021/12/04 10:40:43;;;;;;;0.20;0.10;;;15.10;99.90;;;;;;20869667;28;20240;-72
2021/12/04 10:50:56;;;;;;;0.20;0.10;;;15.70;99.90;;;;;;20907136;28;20283;-70
2021/12/04 11:01:10;;;;;;;0.40;0.40;;;16.10;99.90;;;;;;20919432;28;20338;-73
2021/12/04 11:22:08;;;;;;;0.20;0.10;;;16.70;99.90;;;;;;20868276;28;20203;-70
2021/12/04 11:42:41;;;;;;;0.20;0.00;;;17.90;99.90;;;;;;20866264;28;20185;-71
2021/12/04 11:52:52;;;;;;;0.93;0.37;;;17.90;99.90;;;;;;20876626;28;20576;-69
2021/12/04 12:03:11;;;;;;;0.20;0.10;;;16.30;99.90;;;;;;20839675;28;20218;-73
2021/12/04 12:13:28;;;;;;;0.20;0.10;;;16.40;99.90;;;;;;20857603;28;20217;-74
2021/12/04 12:23:33;;;;;;;0.20;0.10;;;16.70;99.90;;;;;;20902396;28;20192;-74
2021/12/04 12:33:43;;;;;;;0.20;0.13;;;18.40;99.90;;;;;;20900836;28;20225;-71
2021/12/04 12:43:59;;;;;;;0.20;0.00;;;18.40;99.90;;;;;;20900980;28;20197;-73
2021/12/04 12:54:08;;;;;;;0.20;0.10;;;19.30;99.90;;;;;;20846179;28;20218;-72
2021/12/04 13:14:46;;;;;;;0.20;0.10;;;18.40;99.90;;;;;;20816528;28;20222;-75
2021/12/04 13:24:52;;;;;;;0.20;0.10;;;18.90;99.90;;;;;;20813643;28;20277;-73
2021/12/04 13:35:04;;;;;;;0.20;0.00;;;17.30;99.90;;;;;;20813573;28;20252;-76
2021/12/04 13:45:11;;;;;;;0.20;0.10;;;16.80;99.90;;;;;;20831341;28;20197;-71
2021/12/04 13:55:18;;;;;;;0.20;0.10;;;16.50;99.90;;;;;;20833872;28;20225;-71
2021/12/04 14:05:24;;;;;;;0.20;0.10;;;16.40;99.90;;;;;;20831877;28;20241;-72
2021/12/04 14:15:29;;;;;;;0.20;0.10;;;16.10;99.90;;;;;;20830247;28;20228;-73
2021/12/04 14:25:33;;;;;;;0.20;0.10;;;16.10;99.90;;;;;;20831516;28;20217;-74
2021/12/04 14:35:44;;;;;;;0.20;0.07;;;15.90;99.90;;;;;;20828633;28;20229;-72
2021/12/04 14:45:51;;;;;;;0.20;0.10;;;15.60;99.90;;;;;;20828350;28;20619;-75
2021/12/04 14:55:56;;;;;;;0.20;0.10;;;15.50;99.90;;;;;;20826579;28;20317;-76
2021/12/04 15:06:03;;;;;;;0.20;0.10;;;15.40;99.90;;;;;;20822866;28;20651;-74
2021/12/04 15:16:13;;;;;;;0.20;0.03;;;15.20;99.90;;;;;;20820209;28;20279;-72
2021/12/04 15:26:20;;;;;;;0.20;0.00;;;15.10;99.90;;;;;;20822074;28;20336;-73
2021/12/04 15:36:39;;;;;;;0.20;0.10;;;15.10;99.90;;;;;;20822930;28;20233;-74
2021/12/04 15:47:17;;;;;;;0.20;0.10;;;14.90;99.90;;;;;;20816555;28;20345;-73
2021/12/04 15:57:23;;;;;;;0.20;0.10;;;14.80;99.90;;;;;;20804308;28;20240;-73
2021/12/04 16:07:29;;;;;;;0.20;0.00;;;14.50;99.90;;;;;;20801579;28;20194;-71
2021/12/04 16:17:34;;;;;;;0.20;0.00;;;14.40;99.90;;;;;;20804050;28;20833;-72
2021/12/04 16:27:48;;;;;;;0.20;0.10;;;14.30;99.90;;;;;;20815950;28;20226;-72
2021/12/04 16:38:00;;;;;;;0.20;0.00;;;14.20;99.90;;;;;;20872012;28;20225;-74
2021/12/04 16:48:07;;;;;;;0.20;0.10;;;14.20;99.90;;;;;;20899104;28;20198;-72
2021/12/04 16:58:13;;;;;;;0.20;0.00;;;14.20;99.90;;;;;;20850232;28;20276;-72
2021/12/04 17:08:17;;;;;;;0.20;0.10;;;13.80;99.90;;;;;;20825195;28;20194;-74
2021/12/04 17:18:26;;;;;;;0.20;0.10;;;13.20;99.90;;;;;;20813621;28;20678;-71
2021/12/04 17:28:35;;;;;;;0.20;0.10;;;12.80;99.90;;;;;;20813601;28;20207;-73
2021/12/04 17:38:43;;;;;;;0.20;0.10;;;12.60;99.90;;;;;;20874472;28;20770;-72
2021/12/04 17:48:48;;;;;;;0.20;0.10;;;12.70;99.90;;;;;;20896429;28;20280;-71
2021/12/04 17:58:54;;;;;;;0.40;0.40;;;12.60;99.90;;;;;;20895657;28;20697;-71
2021/12/04 18:09:00;;;;;;;0.20;0.10;;;12.40;99.90;;;;;;20891011;28;20198;-72
2021/12/04 18:19:06;;;;;;;0.20;0.10;;;12.60;99.90;;;;;;20810963;28;20266;-72
2021/12/04 18:29:10;;;;;;;0.20;0.10;;;12.50;99.90;;;;;;20820420;28;20233;-71
2021/12/04 18:39:19;;;;;;;0.20;0.10;;;12.40;99.90;;;;;;20891801;28;20268;-71
2021/12/04 18:49:23;;;;;;;0.20;0.10;;;12.30;99.90;;;;;;20829256;28;20289;-72
2021/12/04 18:59:29;;;;;;;1.03;1.03;;;12.00;99.90;;;;;;20833859;28;20320;-71
2021/12/04 19:09:32;;;;;;;0.20;0.10;;;12.00;99.90;;;;;;20848688;28;20186;-76
2021/12/04 19:19:38;;;;;;;0.20;0.10;;;12.00;99.90;;;;;;20836124;28;20922;-76
2021/12/04 19:29:44;;;;;;;0.20;0.10;;;11.50;99.90;;;;;;20821108;28;20687;-74
2021/12/04 20:00:49;;;;;;;0.20;0.10;;;11.40;99.90;;;;;;20819279;28;20340;-75
2021/12/04 20:21:42;;;;;;;0.20;0.10;;;10.80;99.90;;;;;;20763084;28;20226;-73
2021/12/04 20:32:08;;;;;;;0.20;0.10;;;10.30;99.90;;;;;;20814993;28;20552;-77
2021/12/04 22:58:08;;;;;;;0.20;0.10;;;9.70;99.90;;;;;;20610299;28;20296;-73
2021/12/04 23:18:56;;;;;;;0.20;0.10;;;8.80;99.90;;;;;;20811623;28;20299;-72
